Port Hope Simpson, Canada
Current Conditions -  °F | °C
As of 11:00 PM on Sunday 23 Nov 2014 (Local Time) from CYMH Reporting Station
Clear Clear  
Wind Chill: -4°   Ceiling: Unl
Heat Index: 12°   Visibility: 9mi
Dew Point:   Wind: 16mph
Humidity: 62%   Direction: 270°W
Pressure: 29.85"   Gusts: 23mph
Location:  52.53°N, 56.3°W
Report Text: CYMH 240300Z AUTO 27014G20KT 9SM CLR M11/M17 A2985 RMK PRESRR SLP108
Loading
Personal Weather Stations






























Interactive Weather Map New forecast layout! Learn more

10-Day Weather Forecast

Advertisements
Track Severe Weather on mobile